Tiempo atmosférico en la estación meteorológica de Alfaro, La Rioja (285 m.)



Fecha
DESCASC
Temp. máxima en grados centígrados (hora)
DESCASC
Temp. mínima en grados centígrados (hora)
DESCASC
Temp. media en grados centígrados
DESCASC
Racha de viento máxima en m/sg (hora)
DESCASC
Velocidad máxima media en intervalos de 10 minutos(hora)
DESCASC
Precipitaciones diarias en mm
DESCASC
Precipitaciones de 00:00 a 06:00 en mm
DESCASC
Precipitaciones de 06:00 a 12:00 en mm
DESCASC
Precipitaciones de 12:00 a 18:00 en mm
DESCASC
Precipitaciones de 18:00 a 24:00 en mm
DESCASC
19-04-2018 23.8 (16:30) 7.2 (07:30) 15.5 12.22 (14:10) 7.22 (18:20) 0 0 0 0 0
18-04-2018 24.6 (15:40) 5.7 (07:40) 15.2 11.39 (17:10) 8.33 (16:10) 0 0 0 0 0
17-04-2018 22.6 (17:30) 3.2 (07:10) 12.9 4.44 (14:20) 2.5 (21:50) 0 0 0 0 0
16-04-2018 17 (16:20) 8 (23:59) 12.5 11.94 (09:10) 8.61 (09:10) 17.2 17 0 0.2 0
15-04-2018 19.8 (18:00) 5.7 (00:00) 12.7 8.33 (19:20) 5.28 (19:20) 0 0 0 0 0
14-04-2018 18.6 (18:50) 4 (00:00) 11.3 6.11 (01:50) 4.72 (01:40) 3 2.8 0.2 0 0
13-04-2018 15.5 (18:30) 5.8 (00:00) 10.7 9.72 (16:40) 6.67 (16:40) 8 0.2 1.4 0.4 6
12-04-2018 17.2 (17:00) 5.7 (00:00) 11.5 11.11 (11:30) 7.78 (11:50) 6.6 6.6 0 0 0
11-04-2018 9.8 (18:30) 3.4 (00:00) 6.6 17.5 (15:50) 11.67 (15:30) 34 12 11.4 3.2 7.4
10-04-2018 10.1 (16:00) 3.5 (00:00) 6.8 12.22 (09:20) 9.17 (09:40) 4 0.2 0.2 2.4 1.2
09-04-2018 11.5 (13:30) 4.6 (00:00) 8 11.11 (09:50) 7.22 (10:10) 2.6 0 0 1.6 1
08-04-2018 16.6 (16:40) 6.5 (00:00) 11.6 8.89 (15:20) 5.83 (15:20) 4.2 4 0.2 0 0
07-04-2018 12.7 (00:00) 8.2 (00:00) 10.4 11.11 (00:20) 7.5 (00:30) 35.1 13.2 4.2 4.5 13.2
06-04-2018 21.8 (15:10) 7.1 (00:00) 14.4 13.89 (14:40) 10.28 (16:10) 0.8 0 0 0.4 0.4
05-04-2018 20.3 (16:00) 7.2 (00:00) 13.7 9.17 (18:50) 6.39 (18:10) 0 0 0 0 0
04-04-2018 19 (16:10) 9.4 (00:00) 14.2 15.83 (10:40) 11.39 (11:50) 0 0 0 0 0
03-04-2018 22.2 (15:50) 8.2 (00:00) 15.2 17.5 (20:40) 11.39 (20:40) 0 0 0 0 0
02-04-2018 19 (14:40) 6.4 (00:00) 12.7 16.67 (17:10) 11.94 (17:20) 0 0 0 0 0
01-04-2018 18.8 (16:50) -0.9 (-00:0) 8.9 8.89 (17:20) 5.83 (14:50) 0 0 0 0 0
31-03-2018 16.4 (17:00) 5.2 (00:00) 10.8 19.44 (10:00) 13.06 (11:00) 0 0 0 0 0
30-03-2018 15.1 (18:00) 4.3 (00:00) 9.7 15.28 (19:10) 10.83 (19:10) 0 0 0 0 0
29-03-2018 17.3 (17:10) 7.4 (00:00) 12.3 8.61 (00:30) 5.56 (00:30) 0 0 0 0 0
28-03-2018 20.5 (16:20) 2.1 (00:00) 11.3 9.72 (20:40) 5 (20:40) 0 0 0 0 0
27-03-2018 19.8 (17:20) 5.4 (00:00) 12.6 11.39 (12:00) 7.5 (13:00) 0 0 0 0 0
26-03-2018 13.3 (16:50) 6.1 (00:00) 9.7 15.28 (11:40) 10.28 (11:40) 0 0 0 0 0
25-03-2018 14.5 (16:00) 4.3 (00:00) 9.4 13.33 (16:20) 8.06 (18:00) 0.2 0 0 0.2 0
24-03-2018 14.2 (14:50) 1.6 (00:00) 7.9 17.5 (01:50) 9.72 (16:40) 5 5 0 0 0
23-03-2018 15.5 (16:20) 0.1 (00:00) 7.8 10 (23:20) 5.83 (22:30) 1 0 0 0 1

Gráficas

Temp. máximas Temp. mínimas Temp. medias Precipitaciones Rachas de viento máximas Velocidades máximas media en intervalos de 10 minutos

Datos horarios

Fecha y hora oficial Temperatura (ºC) Velocidad del viento (km/h) Dirección del viento Racha (km/h) Dirección de racha Precipitación (mm) Presión (hPa) Tendencia (hPa) Humedad (%)
2018-04-21 23:00:00 14.3 4 Sudeste 8 Sudoeste 0 -- -- 83
2018-04-21 22:00:00 15.3 7 Sudoeste 12 Sudeste 0 -- -- 83
2018-04-21 21:00:00 17.3 10 Sudeste 13 Sudeste 0 -- -- 71
2018-04-21 20:00:00 19.5 9 Sudeste 12 Sudeste 0 -- -- 62
2018-04-21 19:00:00 20.5 9 Sudeste 21 Sudeste 0 -- -- 57
2018-04-21 18:00:00 21.4 14 Sudeste 31 Sudeste 0 -- -- 53
2018-04-21 17:00:00 21.2 20 Sudeste 35 Sudeste 0 -- -- 52
2018-04-21 16:00:00 21.7 22 Sudeste 35 Sudeste 0 -- -- 55
2018-04-21 15:00:00 22.5 24 Sudeste 37 Sudeste 0 -- -- 52
2018-04-21 14:00:00 21.8 26 Sudeste 39 Sudeste 0 -- -- 55
2018-04-21 13:00:00 21 26 Sudeste 37 Sudeste 0 -- -- 57
2018-04-21 12:00:00 19.6 18 Sudeste 25 Sudeste 0 -- -- 59
2018-04-21 11:00:00 17.5 13 Sudeste 21 Sudeste 0 -- -- 66
2018-04-21 10:00:00 14.7 9 Sudeste 14 Sudeste 0 -- -- 77
2018-04-21 09:00:00 11.2 6 Sudeste 10 Sudeste 0 -- -- 96
2018-04-21 08:00:00 7.1 3 Sudeste 10 Sudeste 0 -- -- 97
2018-04-21 07:00:00 6.7 6 Sudeste 10 Sudeste 0 -- -- 95
2018-04-21 06:00:00 7.3 5 Sur 8 Sudoeste 0 -- -- 94
2018-04-21 05:00:00 7.9 9 Sudoeste 11 Sudoeste 0 -- -- 94
2018-04-21 04:00:00 8.5 8 Sur 10 Sur 0 -- -- 93
2018-04-21 03:00:00 9.4 5 Sur 9 Sur 0 -- -- 90
2018-04-21 02:00:00 10.6 3 Oeste 15 Este 0 -- -- 87
2018-04-21 01:00:00 11.3 9 Este 12 Sudeste 0 -- -- 87
2018-04-21 00:00:00 11.8 6 Sur 13 Este 0 -- -- 82
2018-04-20 23:00:00 13.5 5 Sudeste 12 Sudeste 0 -- -- 76
2018-04-20 22:00:00 15.9 9 Sudeste 13 Sudeste 0 -- -- 68
2018-04-20 21:00:00 18.5 10 Sudeste 23 Sudeste 0 -- -- 57
2018-04-20 20:00:00 21 17 Sudeste 33 Sudeste 0 -- -- 48
2018-04-20 19:00:00 22.5 21 Sudeste 36 Sudeste 0 -- -- 45
2018-04-20 18:00:00 23.2 22 Sudeste 40 Sudeste 0 -- -- 48
2018-04-20 17:00:00 22.9 28 Sudeste 40 Sudeste 0 -- -- 51
2018-04-20 16:00:00 23.1 22 Sudeste 39 Sudeste 0 -- -- 50
2018-04-20 15:00:00 22.2 26 Sudeste 36 Sudeste 0 -- -- 52
2018-04-20 14:00:00 21.2 26 Sudeste 36 Este 0 -- -- 57
2018-04-20 13:00:00 20.6 19 Sudeste 30 Sudeste 0 -- -- 60
2018-04-20 12:00:00 19.7 16 Sudeste 26 Sudeste 0 -- -- 61
2018-04-20 11:00:00 17.6 8 Este 21 Sudeste 0 -- -- 68
2018-04-20 10:00:00 15.7 8 Sudeste 15 Sudeste 0 -- -- 77
2018-04-20 09:00:00 10.9 0 Calma 4 Nordeste 0 -- -- 97
2018-04-20 08:00:00 7.1 2 Sudeste 5 Sur 0 -- -- 96
2018-04-20 07:00:00 7.1 5 Sudoeste 8 Sudoeste 0 -- -- 94
2018-04-20 06:00:00 8 0 Calma 4 Sudoeste 0 -- -- 95
2018-04-20 05:00:00 8.3 5 Sudoeste 8 Sudoeste 0 -- -- 93
2018-04-20 04:00:00 9.3 4 Oeste 6 Sudoeste 0 -- -- 90
2018-04-20 03:00:00 10.5 2 Oeste 8 Sur 0 -- -- 92
2018-04-20 02:00:00 10.6 7 Sur 13 Sudeste 0 -- -- 90
2018-04-20 01:00:00 11.2 2 Nordeste 7 Sudoeste 0 -- -- 87
2018-04-20 00:00:00 12.9 6 Sur 11 Sur 0 -- -- 83
2018-04-19 23:00:00 13.6 6 Sudoeste 11 Sur 0 -- -- 79
2018-04-19 22:00:00 15.8 8 Sudeste 14 Sudeste 0 -- -- 69
2018-04-19 21:00:00 18.3 10 Sudeste 29 Sudeste 0 -- -- 60
2018-04-19 20:00:00 20.8 21 Sudeste 33 Sudeste 0 -- -- 51
2018-04-19 19:00:00 22.3 24 Sudeste 35 Sudeste 0 -- -- 48
2018-04-19 18:00:00 23.1 25 Sudeste 37 Sudeste 0 -- -- 49
2018-04-19 17:00:00 23.5 25 Sudeste 36 Sudeste 0 -- -- 50
2018-04-19 16:00:00 23.6 23 Sudeste 35 Sudeste 0 -- -- 48
2018-04-19 15:00:00 23.3 26 Sudeste 44 Sudeste 0 -- -- 50
2018-04-19 14:00:00 22.5 24 Sudeste 36 Sudeste 0 -- -- 48
2018-04-19 13:00:00 22.1 21 Sudeste 29 Sudeste 0 -- -- 52
2018-04-19 12:00:00 20.7 19 Sudeste 28 Sudeste 0 -- -- 54
2018-04-19 11:00:00 18.9 12 Sudeste 19 Sudeste 0 -- -- 61
2018-04-19 10:00:00 15.9 6 Este 10 Este 0 -- -- 80
2018-04-19 09:00:00 10.7 0 Calma 4 Sudeste 0 -- -- 98
2018-04-19 08:00:00 7.5 3 Sur 8 Sudoeste 0 -- -- 96
2018-04-19 07:00:00 7.5 3 Sur 8 Sudeste 0 -- -- 95
2018-04-19 06:00:00 7.8 5 Sudeste 6 Sudeste 0 -- -- 91
2018-04-19 05:00:00 9 0 Calma 8 Sudoeste 0 -- -- 92
2018-04-19 04:00:00 9.7 5 Sudoeste 7 Sudoeste 0 -- -- 89
2018-04-19 03:00:00 11.1 4 Oeste 10 Sur 0 -- -- 90
2018-04-19 02:00:00 10.4 9 Sur 11 Sudeste 0 -- -- 89
2018-04-19 01:00:00 11.1 0 Calma 5 Oeste 0 -- -- 87
2018-04-19 00:00:00 12.6 3 Sur 9 Sudoeste 0 -- -- 85
2018-04-18 23:00:00 14.2 8 Sur 14 Sudeste 0 -- -- 79
2018-04-18 22:00:00 16.6 8 Sudeste 12 Sudeste 0 -- -- 70
2018-04-18 21:00:00 19.4 6 Sudeste 15 Sudeste 0 -- -- 60
2018-04-18 20:00:00 21.8 12 Sudeste 29 Sudeste 0 -- -- 50
2018-04-18 19:00:00 23.9 18 Sudeste 34 Sudeste 0 -- -- 42
2018-04-18 18:00:00 23.9 25 Sudeste 41 Sudeste 0 -- -- 45
2018-04-18 17:00:00 24.3 27 Sudeste 39 Sudeste 0 -- -- 43
2018-04-18 16:00:00 24.4 28 Sudeste 39 Sudeste 0 -- -- 45
2018-04-18 15:00:00 23.8 24 Sudeste 35 Sudeste 0 -- -- 52
2018-04-18 14:00:00 22.8 25 Sudeste 36 Sudeste 0 -- -- 56
2018-04-18 13:00:00 21.7 21 Sudeste 31 Sudeste 0 -- -- 58
2018-04-18 12:00:00 19.7 12 Sudeste 23 Sudeste 0 -- -- 64
2018-04-18 11:00:00 17 5 Este 10 Este 0 -- -- 72
2018-04-18 10:00:00 13.6 0 Calma 4 Sur 0 -- -- 81
2018-04-18 09:00:00 9.8 3 Sur 6 Sur 0 -- -- 99
2018-04-18 08:00:00 6.3 0 Calma 6 Sudoeste 0 -- -- 98
2018-04-18 07:00:00 6 0 Calma 0 Calma 0 -- -- 96
2018-04-18 06:00:00 6.7 2 Este 6 Sudoeste 0 -- -- 96
2018-04-18 05:00:00 7.4 0 Calma 5 Sudoeste 0 -- -- 95
2018-04-18 04:00:00 8.9 0 Calma 4 Este 0 -- -- 95
2018-04-18 03:00:00 9.1 0 Calma 0 Calma 0 -- -- 93
2018-04-18 02:00:00 10.3 0 Calma 9 Sudeste 0 -- -- 91
2018-04-18 01:00:00 11.4 3 Este 9 Este 0 -- -- 92
2018-04-18 00:00:00 11.9 0 Calma 5 Sudeste 0 -- -- 89
2018-04-17 23:00:00 12.7 3 Sur 9 Sudoeste 0 -- -- 85
2018-04-17 22:00:00 14.3 9 Sudoeste 10 Sudoeste 0 -- -- 78
2018-04-17 21:00:00 19.3 2 Este 6 Sudeste 0 -- -- 59
2018-04-17 20:00:00 22.3 2 Sudeste 6 Sudeste 0 -- -- 50
2018-04-17 19:00:00 22.2 3 Este 6 Este 0 -- -- 43
2018-04-17 18:00:00 22.3 2 Nordeste 7 Sudeste 0 -- -- 41
2018-04-17 17:00:00 22.1 4 Noroeste 10 Norte 0 -- -- 41
2018-04-17 16:00:00 21.5 5 Norte 14 Este 0 -- -- 43
2018-04-17 15:00:00 20.6 3 Sur 16 Este 0 -- -- 46
2018-04-17 14:00:00 18.6 5 Este 11 Sudeste 0 -- -- 59
2018-04-17 13:00:00 17 4 Este 8 Este 0 -- -- 66
2018-04-17 12:00:00 14.8 4 Este 9 Oeste 0 -- -- 70
2018-04-17 11:00:00 12.5 5 Norte 11 Norte 0 -- -- 78
2018-04-17 10:00:00 10 4 Norte 8 Norte 0 -- -- 93
2018-04-17 09:00:00 7.4 4 Noroeste 6 Norte 0 -- -- 100
2018-04-17 08:00:00 4 0 Calma 7 Noroeste 0 -- -- 99
2018-04-17 07:00:00 3.3 0 Calma 4 Sudeste 0 -- -- 98
2018-04-17 06:00:00 3.7 0 Calma 4 Oeste 0 -- -- 98
2018-04-17 05:00:00 4.2 2 Oeste 4 Oeste 0 -- -- 97
2018-04-17 04:00:00 4.8 0 Calma -- -- 0 -- -- 97
2018-04-17 03:00:00 5.3 0 Calma 3 Sur 0 -- -- 94
2018-04-17 02:00:00 6.2 0 Calma 7 Sur 0 -- -- 93
2018-04-17 01:00:00 7.2 4 Sur 6 Sur 0 -- -- 93
2018-04-17 00:00:00 8 7 Sur 9 Sur 0 -- -- 92
2018-04-16 23:00:00 9.1 5 Oeste 8 Sudoeste 0 -- -- 88
2018-04-16 22:00:00 10.7 4 Sudoeste 12 Norte 0 -- -- 83
2018-04-16 21:00:00 12.3 4 Norte 20 Noroeste 0 -- -- 78
2018-04-16 20:00:00 15 13 Noroeste 26 Noroeste 0 -- -- 64
2018-04-16 19:00:00 16.2 16 Noroeste 28 Noroeste 0 -- -- 61
2018-04-16 18:00:00 16.3 17 Noroeste 30 Noroeste 0 -- -- 59
2018-04-16 17:00:00 15.7 20 Noroeste 35 Noroeste 0 -- -- 62
2018-04-16 16:00:00 16.5 21 Noroeste 35 Noroeste 0 -- -- 65
2018-04-16 15:00:00 15.7 21 Noroeste 38 Noroeste 0 -- -- 68
2018-04-16 14:00:00 14 25 Noroeste 41 Noroeste 0 -- -- 72
2018-04-16 13:00:00 13.3 27 Noroeste 41 Noroeste 0.2 -- -- 75
2018-04-16 12:00:00 11.4 27 Noroeste 40 Noroeste 0 -- -- 78
2018-04-16 11:00:00 10.2 25 Noroeste 38 Noroeste 0 -- -- 84
2018-04-16 10:00:00 9.2 26 Noroeste 43 Noroeste 0 -- -- 88
2018-04-16 09:00:00 8.9 28 Noroeste 41 Noroeste 0 -- -- 91
2018-04-16 08:00:00 8.8 22 Noroeste 35 Noroeste 0 -- -- 96
2018-04-16 07:00:00 9 22 Noroeste 34 Noroeste 0 -- -- 97
2018-04-16 06:00:00 9.2 19 Noroeste 33 Noroeste 3.2 -- -- 98
2018-04-16 05:00:00 9.4 19 Noroeste 40 Noroeste 2.8 -- -- 98
2018-04-16 04:00:00 9.6 27 Noroeste 42 Noroeste 4 -- -- 98
2018-04-16 03:00:00 10.4 20 Noroeste 31 Noroeste 2.8 -- -- 98
2018-04-16 02:00:00 10.6 15 Noroeste 25 Noroeste 4 -- -- 95
2018-04-16 01:00:00 11.7 13 Noroeste 18 Oeste 0.2 -- -- 89
2018-04-16 00:00:00 12.3 9 Noroeste 15 Noroeste 0 -- -- 94
2018-04-15 23:00:00 13 0 Calma 6 Sudoeste 0 -- -- 93
2018-04-15 22:00:00 13.6 4 Sudoeste 6 Sudoeste 0 -- -- 89
2018-04-15 21:00:00 14.3 0 Calma 6 Nordeste 0 -- -- 85
2018-04-15 20:00:00 15.5 6 Norte 30 Noroeste 0 -- -- 81
2018-04-15 19:00:00 18.3 12 Noroeste 21 Noroeste 0 -- -- 64
2018-04-15 18:00:00 19.8 4 Sudoeste 9 Oeste 0 -- -- 57
2018-04-15 17:00:00 19.7 3 Nordeste 10 Sudeste 0 -- -- 54
2018-04-15 16:00:00 19 3 Este 13 Nordeste 0 -- -- 53
2018-04-15 15:00:00 18.3 7 Nordeste 15 Este 0 -- -- 57
2018-04-15 14:00:00 17.5 7 Nordeste 15 Nordeste 0 -- -- 62
2018-04-15 13:00:00 15.8 4 Nordeste 12 Este 0 -- -- 62
2018-04-15 12:00:00 14.5 3 Noroeste 8 Noroeste 0 -- -- 74
2018-04-15 11:00:00 12 2 Norte 9 Norte 0 -- -- 87
2018-04-15 10:00:00 10 5 Norte 8 Norte 0 -- -- 98
2018-04-15 09:00:00 8.5 4 Noroeste 15 Noroeste 0 -- -- 99
2018-04-15 08:00:00 6.7 3 Norte 5 Noroeste 0 -- -- 98
2018-04-15 07:00:00 6 2 Norte 5 Norte 0 -- -- 97
2018-04-15 06:00:00 7.1 0 Calma 15 Sudeste 0 -- -- 97
2018-04-15 05:00:00 6.8 11 Sudeste 13 Sudeste 0 -- -- 94
2018-04-15 04:00:00 7.7 7 Este 17 Sudeste 0 -- -- 93
2018-04-15 03:00:00 8.4 11 Sudeste 17 Sur 0 -- -- 93
2018-04-15 02:00:00 8.1 11 Sudeste 15 Sudeste 0 -- -- 94
2018-04-15 01:00:00 8.3 5 Sudeste 11 Sur 0 -- -- 91
2018-04-15 00:00:00 9.7 5 Sur 10 Sur 0 -- -- 90
2018-04-14 23:00:00 10.7 0 Calma 6 Sudoeste 0 -- -- 86
2018-04-14 22:00:00 12 5 Sudoeste 7 Sudeste 0 -- -- 82
2018-04-14 21:00:00 15 6 Sudeste 9 Sudeste 0 -- -- 69
2018-04-14 20:00:00 17.5 5 Sur 17 Sur 0 -- -- 52
2018-04-14 19:00:00 18.6 8 Sudeste 15 Sur 0 -- -- 51
2018-04-14 18:00:00 18 6 Este 16 Este 0 -- -- 54
2018-04-14 17:00:00 17.7 4 Nordeste 14 Norte 0 -- -- 51
2018-04-14 16:00:00 17.2 5 Norte 15 Este 0 -- -- 51
2018-04-14 15:00:00 16.2 5 Este 14 Este 0 -- -- 59
2018-04-14 14:00:00 15.7 5 Noroeste 12 Nordeste 0 -- -- 64
2018-04-14 13:00:00 14.5 6 Este 19 Este 0 -- -- 66
2018-04-14 12:00:00 13.4 6 Este 13 Este 0 -- -- 78
2018-04-14 11:00:00 11.8 7 Nordeste 12 Este 0 -- -- 87
2018-04-14 10:00:00 9.9 5 Nordeste 14 Oeste 0 -- -- 96
2018-04-14 09:00:00 7.3 2 Oeste 5 Oeste 0 -- -- 100
2018-04-14 08:00:00 5.7 0 Calma 8 Sudoeste 0.2 -- -- 99
2018-04-14 07:00:00 4 5 Sudoeste 6 Sudoeste 0 -- -- 98
2018-04-14 06:00:00 5 0 Calma -- -- 0 -- -- 96
2018-04-14 05:00:00 6.4 0 Calma 6 Sudoeste 0 -- -- 96
2018-04-14 04:00:00 7.5 0 Calma 4 Sur 0 -- -- 96
2018-04-14 03:00:00 8.4 2 Oeste 12 Este 0 -- -- 95
2018-04-14 02:00:00 8.6 10 Este 22 Este 0.8 -- -- 97
2018-04-14 01:00:00 8.8 6 Sur 13 Este 2 -- -- 96
2018-04-14 00:00:00 9.1 2 Noroeste 13 Oeste 3 -- -- 94
2018-04-13 23:00:00 9 5 Este 15 Sudeste 2 -- -- 91
2018-04-13 22:00:00 10.3 9 Noroeste 18 Norte 0.8 -- -- 95
2018-04-13 21:00:00 10.8 9 Noroeste 19 Noroeste 0.2 -- -- 90
2018-04-13 20:00:00 11 9 Noroeste 33 Oeste 0 -- -- 80
2018-04-13 19:00:00 13.8 15 Este 27 Este 0 -- -- 71
2018-04-13 18:00:00 15.3 19 Este 31 Este 0 -- -- 70
2018-04-13 17:00:00 14.3 21 Este 35 Este 0 -- -- 75
2018-04-13 16:00:00 14.5 16 Este 23 Este 0 -- -- 70
2018-04-13 15:00:00 13 17 Sudeste 24 Sudeste 0 -- -- 74
2018-04-13 14:00:00 13.6 9 Este 18 Este 0.4 -- -- 75
2018-04-13 13:00:00 13.2 12 Este 22 Este 0 -- -- 75
2018-04-13 12:00:00 13.3 12 Este 19 Sudeste 0 -- -- 78
2018-04-13 11:00:00 10.9 12 Sudeste 17 Sudeste 0 -- -- 92
2018-04-13 10:00:00 9.5 8 Sudeste 13 Sudeste 0 -- -- 96
2018-04-13 09:00:00 8.6 4 Sur 9 Sudeste 0.2 -- -- 97
2018-04-13 08:00:00 8.2 7 Sudeste 17 Sudeste 0.4 -- -- 97
2018-04-13 07:00:00 8.1 11 Sudeste 15 Sudeste 0.8 -- -- 96
2018-04-13 06:00:00 7.7 7 Sudeste 12 Sudeste 0 -- -- 94
2018-04-13 05:00:00 7.8 9 Sudeste 14 Sudeste 0.2 -- -- 92
2018-04-13 04:00:00 7.8 7 Este 9 Este 0 -- -- 89
2018-04-13 03:00:00 7.6 3 Sudeste 12 Sudeste 0 -- -- 89
2018-04-13 02:00:00 6.6 8 Sur 12 Sur 0 -- -- 90
2018-04-13 01:00:00 6.3 4 Sur 12 Sur 0 -- -- 88
2018-04-13 00:00:00 6.7 5 Sur 11 Sudoeste 0 -- -- 87
2018-04-12 23:00:00 9 6 Sudoeste 13 Sur 0 -- -- 77
2018-04-12 22:00:00 12.2 8 Sur 21 Sur 0 -- -- 62
2018-04-12 21:00:00 13.6 12 Sur 27 Sudeste 0 -- -- 60
2018-04-12 20:00:00 14.3 9 Sudeste 15 Sudeste 0 -- -- 66
2018-04-12 19:00:00 15.5 10 Sudeste 18 Sudeste 0 -- -- 61
2018-04-12 18:00:00 16.9 10 Este 23 Este 0 -- -- 53
2018-04-12 17:00:00 17.2 6 Sudoeste 11 Norte 0 -- -- 47
2018-04-12 16:00:00 15.7 4 Noroeste 17 Norte 0 -- -- 51
2018-04-12 15:00:00 14.8 9 Norte 24 Norte 0 -- -- 55
2018-04-12 14:00:00 14.7 15 Norte 32 Noroeste 0 -- -- 61
2018-04-12 13:00:00 14.1 23 Noroeste 37 Noroeste 0 -- -- 65
2018-04-12 12:00:00 14 24 Noroeste 40 Noroeste 0 -- -- 64
2018-04-12 11:00:00 12.3 24 Noroeste 37 Noroeste 0 -- -- 70
2018-04-12 10:00:00 10.3 14 Noroeste 25 Noroeste 0 -- -- 80
2018-04-12 09:00:00 9.3 12 Noroeste 27 Noroeste 0 -- -- 82
2018-04-12 08:00:00 8.8 16 Noroeste 33 Noroeste 0 -- -- 86
2018-04-12 07:00:00 8.8 20 Noroeste 35 Noroeste 0 -- -- 88
2018-04-12 06:00:00 8.6 18 Noroeste 32 Noroeste 0 -- -- 91
2018-04-12 05:00:00 8 18 Noroeste 31 Noroeste 0.4 -- -- 98
2018-04-12 04:00:00 6.7 0 Calma 10 Sur 0.4 -- -- 100
2018-04-12 03:00:00 6.3 6 Sur 10 Sur 0.8 -- -- 99
2018-04-12 02:00:00 6.1 5 Sudoeste 9 Sudoeste 2.4 -- -- 99
2018-04-12 01:00:00 5.8 3 Sur 10 Sudeste 2.6 -- -- 99
2018-04-12 00:00:00 5.7 3 Sudoeste 9 Nordeste 2.6 -- -- 98
2018-04-11 23:00:00 5.6 6 Este 36 Este 2.6 -- -- 97
2018-04-11 22:00:00 8.9 17 Norte 36 Noroeste 0.8 -- -- 91
2018-04-11 21:00:00 9 22 Noroeste 49 Noroeste 0.6 -- -- 90
2018-04-11 20:00:00 9.2 35 Noroeste 55 Noroeste 0.8 -- -- 89
2018-04-11 19:00:00 9.4 30 Noroeste 48 Noroeste 0 -- -- 87
2018-04-11 18:00:00 9.4 33 Noroeste 58 Noroeste 0 -- -- 86
2018-04-11 17:00:00 9.1 35 Noroeste 59 Noroeste 0 -- -- 87
2018-04-11 16:00:00 8.6 39 Noroeste 63 Noroeste 0.6 -- -- 90
2018-04-11 15:00:00 8.3 37 Noroeste 56 Noroeste 1.6 -- -- 92
2018-04-11 14:00:00 8.3 37 Noroeste 54 Noroeste 0.6 -- -- 91
2018-04-11 13:00:00 8.2 37 Noroeste 59 Noroeste 0.4 -- -- 89
2018-04-11 12:00:00 7.3 35 Noroeste 57 Noroeste 0.2 -- -- 92
2018-04-11 11:00:00 6.5 34 Noroeste 55 Noroeste 0.6 -- -- 94
2018-04-11 10:00:00 5.7 29 Noroeste 44 Noroeste 2 -- -- 96
2018-04-11 09:00:00 5.4 24 Noroeste 46 Noroeste 2.8 -- -- 97
2018-04-11 08:00:00 4.6 12 Norte 29 Noroeste 2.8 -- -- 99
2018-04-11 07:00:00 4 19 Noroeste 39 Noroeste 3 -- -- 98
2018-04-11 06:00:00 3.7 24 Noroeste 42 Noroeste 2 -- -- 98
2018-04-11 05:00:00 3.5 28 Noroeste 46 Noroeste 1.6 -- -- 98
2018-04-11 04:00:00 3.6 28 Noroeste 44 Noroeste 1.2 -- -- 97
2018-04-11 03:00:00 3.8 30 Noroeste 42 Noroeste 1 -- -- 97
2018-04-11 02:00:00 4.3 29 Noroeste 41 Noroeste 1.8 -- -- 97
2018-04-11 01:00:00 4.9 23 Noroeste 36 Noroeste 4.4 -- -- 98
2018-04-11 00:00:00 8 9 Nordeste 18 Este 0.8 -- -- 97
2018-04-10 23:00:00 8.1 11 Este 25 Sudeste 0.2 -- -- 94
2018-04-10 22:00:00 8.3 17 Sudeste 31 Sudeste 0 -- -- 93
2018-04-10 21:00:00 8.6 22 Sudeste 32 Sudeste 0 -- -- 92
2018-04-10 20:00:00 8.9 21 Sudeste 38 Sudeste 0 -- -- 91
2018-04-10 19:00:00 9.3 27 Sudeste 37 Sudeste 0.2 -- -- 93
2018-04-10 18:00:00 9.2 22 Sudeste 38 Sur 0.6 -- -- 94
2018-04-10 17:00:00 9.4 20 Sudeste 41 Sudeste 1.4 -- -- 93
2018-04-10 16:00:00 10.1 28 Sudeste 42 Sudeste 0 -- -- 90
2018-04-10 15:00:00 9.1 22 Sur 42 Sudeste 0 -- -- 91
2018-04-10 14:00:00 8.7 28 Sudeste 41 Sudeste 0.2 -- -- 93
2018-04-10 13:00:00 8.3 17 Sur 41 Sudeste 0.2 -- -- 92
2018-04-10 12:00:00 7.7 26 Sudeste 42 Sudeste 0 -- -- 91
2018-04-10 11:00:00 7.2 28 Sudeste 41 Sudeste 0.2 -- -- 93
2018-04-10 10:00:00 6.9 27 Sudeste 44 Sudeste 0 -- -- 91
2018-04-10 09:00:00 6.7 24 Sudeste 37 Sudeste 0 -- -- 92
2018-04-10 08:00:00 6.3 21 Sudeste 30 Sudeste 0 -- -- 92
2018-04-10 07:00:00 5.9 18 Sudeste 31 Sudeste 0 -- -- 94
2018-04-10 06:00:00 5.8 22 Sudeste 30 Sudeste 0 -- -- 96
2018-04-10 05:00:00 5.4 15 Sudeste 24 Sudeste 0 -- -- 98
2018-04-10 04:00:00 3.5 4 Este 7 Nordeste 0 -- -- 98
2018-04-10 03:00:00 4.5 0 Calma 8 Este 0 -- -- 96
2018-04-10 02:00:00 5.4 7 Este 11 Este 0 -- -- 97
2018-04-10 01:00:00 5.9 3 Sudeste 6 Sudeste 0.2 -- -- 95
2018-04-10 00:00:00 5.9 2 Nordeste 6 Oeste 0 -- -- 94
2018-04-09 23:00:00 5.7 5 Sudoeste 22 Norte 0 -- -- 93
2018-04-09 22:00:00 5.7 14 Norte 24 Norte 0 -- -- 91
2018-04-09 21:00:00 6.7 12 Norte 38 Noroeste 1 -- -- 90
2018-04-09 20:00:00 8.3 17 Noroeste 31 Noroeste 0 -- -- 83
2018-04-09 19:00:00 10.1 13 Noroeste 27 Noroeste 0 -- -- 78
2018-04-09 18:00:00 9.6 9 Noroeste 15 Oeste 0.8 -- -- 92
2018-04-09 17:00:00 8.1 11 Noroeste 32 Norte 0.6 -- -- 91
2018-04-09 16:00:00 10.6 20 Noroeste 34 Noroeste 0 -- -- 74
2018-04-09 15:00:00 9.2 18 Norte 32 Noroeste 0.2 -- -- 86
2018-04-09 14:00:00 11.3 22 Noroeste 31 Norte 0 -- -- 79
2018-04-09 13:00:00 11 17 Noroeste 28 Sudoeste 0 -- -- 82
2018-04-09 12:00:00 10.3 23 Sudoeste 30 Sudoeste 0 -- -- 68
2018-04-09 11:00:00 9.4 11 Sudoeste 39 Sudoeste 0 -- -- 80
2018-04-09 10:00:00 8.3 25 Sudoeste 40 Sudoeste 0 -- -- 90
2018-04-09 09:00:00 6.5 4 Sudeste 10 Sudeste 0 -- -- 100
2018-04-09 08:00:00 5.6 2 Sudeste 5 Sudeste 0 -- -- 100
2018-04-09 07:00:00 5 0 Calma 8 Sur 0 -- -- 100
2018-04-09 06:00:00 4.7 5 Sur 8 Sudoeste 0 -- -- 100
2018-04-09 05:00:00 4.8 4 Nordeste 10 Sur 0 -- -- 99
2018-04-09 04:00:00 5.4 2 Sudoeste 8 Sur 0 -- -- 98
2018-04-09 03:00:00 4.9 0 Calma 7 Sudoeste 0 -- -- 98
2018-04-09 02:00:00 4.9 0 Calma 3 Oeste 0 -- -- 96
2018-04-09 01:00:00 5.9 0 Calma 6 Sur 0 -- -- 96
2018-04-09 00:00:00 6.5 5 Sudoeste 8 Sudoeste 0 -- -- 93
2018-04-08 23:00:00 7.6 2 Oeste 10 Oeste 0 -- -- 93
2018-04-08 22:00:00 8.8 10 Oeste 12 Oeste 0 -- -- 90
2018-04-08 21:00:00 11.6 0 Calma 4 Nordeste 0 -- -- 80
2018-04-08 20:00:00 12.7 0 Calma 18 Este 0 -- -- 73
2018-04-08 19:00:00 14.5 12 Nordeste 26 Nordeste 0 -- -- 66
2018-04-08 18:00:00 16.1 12 Noroeste 25 Noroeste 0 -- -- 54
2018-04-08 17:00:00 16.6 15 Norte 30 Noroeste 0 -- -- 54
2018-04-08 16:00:00 15.1 16 Noroeste 32 Norte 0 -- -- 53
2018-04-08 15:00:00 15.1 17 Noroeste 28 Norte 0 -- -- 63
2018-04-08 14:00:00 14.6 18 Noroeste 31 Noroeste 0 -- -- 65
2018-04-08 13:00:00 13.4 19 Noroeste 29 Noroeste 0 -- -- 70
2018-04-08 12:00:00 11.8 13 Norte 19 Norte 0 -- -- 85
2018-04-08 11:00:00 9.7 4 Noroeste 9 Norte 0 -- -- 95
2018-04-08 10:00:00 8.9 2 Noroeste 5 Oeste 0.2 -- -- 99
2018-04-08 09:00:00 8.3 3 Oeste 8 Oeste 0 -- -- 100
2018-04-08 08:00:00 8 3 Noroeste 5 Noroeste 0 -- -- 100
2018-04-08 07:00:00 7.9 2 Oeste 5 Oeste 0 -- -- 100
2018-04-08 06:00:00 7.9 0 Calma 9 Nordeste 0.2 -- -- 100
2018-04-08 05:00:00 8 8 Este 10 Nordeste 0.2 -- -- 99
2018-04-08 04:00:00 8.1 2 Sudoeste 5 Sudoeste 0.8 -- -- 99
2018-04-08 03:00:00 8.2 0 Calma 8 Sudoeste 1 -- -- 98
2018-04-08 02:00:00 8.2 0 Calma 14 Noroeste 0.2 -- -- 99
2018-04-08 01:00:00 8.2 4 Oeste 9 Noroeste 1.6 -- -- 99
2018-04-08 00:00:00 8.2 4 Noroeste 10 Noroeste 2 -- -- 98
2018-04-07 23:00:00 8.2 0 Calma 17 Norte 2.4 -- -- 98
2018-04-07 22:00:00 8.3 12 Norte 27 Noroeste 1.8 -- -- 97
2018-04-07 21:00:00 8.4 17 Noroeste 32 Noroeste 3.4 -- -- 97
2018-04-07 20:00:00 8.3 22 Noroeste 33 Noroeste 3 -- -- 96
2018-04-07 19:00:00 9.5 21 Noroeste 35 Noroeste 0.6 -- -- 95
2018-04-07 18:00:00 11.7 0 Calma 6 Oeste -- -- -- 95
2018-04-07 17:00:00 11.8 4 Nordeste 8 Nordeste 0.6 -- -- 94
2018-04-07 16:00:00 12.1 3 Nordeste 9 Nordeste 0.4 -- -- 91
2018-04-07 15:00:00 12.3 7 Sudeste 15 Sudeste 0.4 -- -- 88
2018-04-07 14:00:00 11.8 5 Sur 12 Sur 0.2 -- -- 89
2018-04-07 13:00:00 11.4 9 Sudeste 22 Este 0 -- -- 90
2018-04-07 12:00:00 10.4 11 Este 20 Este 2.8 -- -- 94
2018-04-07 11:00:00 10.9 10 Sudeste 19 Sudeste 1 -- -- 90
2018-04-07 10:00:00 11.4 13 Sur 18 Sudeste 0 -- -- 85
2018-04-07 09:00:00 10.6 8 Sudeste 24 Sudeste 0.2 -- -- 89
2018-04-07 08:00:00 10.2 17 Sudeste 35 Sudeste 0.2 -- -- 89
2018-04-07 07:00:00 10.4 8 Sur 25 Sudeste 0 -- -- 86
2018-04-07 06:00:00 10.5 6 Sur 15 Sudeste 0 -- -- 87
2018-04-07 05:00:00 10.2 8 Sudeste 27 Sudeste 0.2 -- -- 92
2018-04-07 04:00:00 10 18 Sudeste 36 Sudeste 3.4 -- -- 96
2018-04-07 03:00:00 10 25 Sudeste 37 Sudeste 4.2 -- -- 95
2018-04-07 02:00:00 10.4 25 Sudeste 35 Sudeste 2.2 -- -- 92
2018-04-07 01:00:00 10.6 22 Sudeste 40 Sudeste 3.2 -- -- 90
2018-04-07 00:00:00 12.7 18 Sur 31 Sudeste 0 -- -- 73
2018-04-06 23:00:00 12.8 26 Sudeste 39 Este 0 -- -- 71
2018-04-06 22:00:00 13.6 10 Sur 21 Sur 0 -- -- 72
2018-04-06 21:00:00 14.3 13 Sudeste 36 Sudeste 0 -- -- 70
2018-04-06 20:00:00 14.4 18 Sudeste 29 Sudeste 0.4 -- -- 75
2018-04-06 19:00:00 15.3 18 Sudeste 33 Sudeste 0 -- -- 75
2018-04-06 18:00:00 16.1 21 Sudeste 43 Sudeste 0.4 -- -- 71
2018-04-06 17:00:00 19.2 33 Sudeste 49 Sudeste 0 -- -- 46
2018-04-06 16:00:00 21.3 34 Sudeste 48 Sudeste 0 -- -- 43
2018-04-06 15:00:00 21.7 31 Sudeste 50 Sudeste 0 -- -- 42
2018-04-06 14:00:00 20.2 33 Sudeste 45 Sudeste 0 -- -- 45
2018-04-06 13:00:00 17.7 31 Sudeste 47 Sudeste 0 -- -- 52
2018-04-06 12:00:00 16.8 26 Sudeste 45 Sudeste 0 -- -- 54
2018-04-06 11:00:00 15 29 Sudeste 40 Sudeste 0 -- -- 58
2018-04-06 10:00:00 12.6 18 Sudeste 29 Sudeste 0 -- -- 66
2018-04-06 09:00:00 8.7 3 Sur 15 Sur 0 -- -- 82
2018-04-06 08:00:00 7.1 11 Sur 17 Sudeste 0 -- -- 85
2018-04-06 07:00:00 7.2 10 Sur 13 Sudeste 0 -- -- 83
2018-04-06 06:00:00 7.8 0 Calma 7 Sudeste 0 -- -- 83
2018-04-06 05:00:00 8.9 4 Sudeste 15 Sudeste 0 -- -- 77
2018-04-06 04:00:00 10.8 10 Sudeste 26 Sudeste 0 -- -- 72
2018-04-06 03:00:00 11.9 7 Sudeste 21 Sur 0 -- -- 66
2018-04-06 02:00:00 13.4 14 Sudeste 33 Sudeste 0 -- -- 61
2018-04-06 01:00:00 13.7 17 Sudeste 34 Sudeste -- -- -- 61
2018-04-06 00:00:00 13.6 19 Sudeste 33 Sudeste 0 -- -- 62
2018-04-05 23:00:00 12.9 9 Sudeste 15 Sudeste 0 -- -- 66
2018-04-05 22:00:00 14.2 5 Este 24 Sudeste 0 -- -- 59
2018-04-05 21:00:00 15.7 12 Sudeste 28 Sudeste 0 -- -- 53
2018-04-05 20:00:00 17.6 18 Sudeste 27 Sudeste 0 -- -- 50
2018-04-05 19:00:00 18.5 22 Sudeste 33 Sudeste 0 -- -- 41
2018-04-05 18:00:00 18.7 19 Sudeste 32 Este 0 -- -- 44
2018-04-05 17:00:00 18.5 19 Sudeste 30 Sudeste 0 -- -- 49
2018-04-05 16:00:00 20.3 20 Sudeste 30 Sudeste 0 -- -- 46
2018-04-05 15:00:00 19.1 22 Sudeste 30 Sudeste 0 -- -- 51
2018-04-05 14:00:00 18.1 13 Este 28 Sudeste 0 -- -- 49
2018-04-05 13:00:00 17.1 12 Sudeste 24 Sudeste 0 -- -- 56
2018-04-05 12:00:00 15.9 5 Sudeste 19 Sudeste 0 -- -- 52
2018-04-05 11:00:00 14.3 3 Este 10 Sudeste 0 -- -- 59
2018-04-05 10:00:00 11 8 Sudoeste 13 Sudeste 0 -- -- 80
2018-04-05 09:00:00 9 0 Calma 6 Sur 0 -- -- 92
2018-04-05 08:00:00 7.8 0 Calma 8 Sudoeste 0 -- -- 92
2018-04-05 07:00:00 7.6 6 Oeste 9 Oeste 0 -- -- 92
2018-04-05 06:00:00 7.8 6 Noroeste 12 Noroeste 0 -- -- 89
2018-04-05 05:00:00 8.1 6 Oeste 10 Noroeste 0 -- -- 85
2018-04-05 04:00:00 9.7 6 Noroeste 9 Noroeste 0 -- -- 83
2018-04-05 03:00:00 10.3 3 Noroeste 12 Noroeste 0 -- -- 80
2018-04-05 02:00:00 10.4 10 Noroeste 18 Norte 0 -- -- 81
2018-04-05 01:00:00 10.7 6 Norte 21 Noroeste 0 -- -- 77
2018-04-05 00:00:00 10.8 14 Noroeste 25 Noroeste 0 -- -- 75
2018-04-04 23:00:00 12.3 18 Norte 28 Norte 0 -- -- 65
2018-04-04 22:00:00 13.3 3 Sudeste 15 Nordeste -- -- -- 65
2018-04-04 21:00:00 14.4 5 Sur 14 Noroeste 0 -- -- 58
2018-04-04 20:00:00 16.3 8 Norte 28 Oeste 0 -- -- 48
2018-04-04 19:00:00 18.2 22 Noroeste 38 Oeste 0 -- -- 43
2018-04-04 18:00:00 18.1 26 Oeste 37 Noroeste 0 -- -- 40
2018-04-04 17:00:00 18 8 Sudoeste 29 Noroeste 0 -- -- 40
2018-04-04 16:00:00 18.9 19 Noroeste 35 Oeste 0 -- -- 39
2018-04-04 15:00:00 18.2 13 Oeste 46 Sudoeste 0 -- -- 38
2018-04-04 14:00:00 17.6 34 Sudoeste 52 Sudoeste 0 -- -- 42
2018-04-04 13:00:00 17.6 39 Sudoeste 54 Sudoeste -- -- -- 42
2018-04-04 12:00:00 15.9 33 Sudoeste 55 Sudoeste 0 -- -- 46
2018-04-04 11:00:00 14.1 34 Sudoeste 57 Sudoeste 0 -- -- 48
2018-04-04 10:00:00 13.8 36 Sudoeste 55 Sudoeste 0 -- -- 51
2018-04-04 09:00:00 11.4 19 Sur 39 Sudoeste 0 -- -- 60
2018-04-04 08:00:00 11 18 Sudoeste 41 Oeste 0 -- -- 58
2018-04-04 07:00:00 11.5 33 Oeste 43 Sudoeste 0 -- -- 55
2018-04-04 06:00:00 10.3 4 Sur 37 Sudoeste 0 -- -- 59
2018-04-04 05:00:00 11.7 26 Sudoeste 41 Sudoeste 0 -- -- 54
2018-04-04 04:00:00 11.1 15 Sudoeste 33 Oeste 0 -- -- 58
2018-04-04 03:00:00 10.9 3 Noroeste 26 Sudoeste 0 -- -- 64
2018-04-04 02:00:00 11.2 9 Sudoeste 24 Oeste 0 -- -- 69
2018-04-04 01:00:00 10.9 3 Oeste 18 Noroeste 0 -- -- 73
2018-04-04 00:00:00 12.5 9 Noroeste 20 Norte 0 -- -- 64
2018-04-03 23:00:00 14.8 15 Sudoeste 27 Sudoeste 0 -- -- 49
2018-04-03 22:00:00 15.7 8 Oeste 41 Sudoeste 0 -- -- 48
2018-04-03 21:00:00 17 22 Sudoeste 63 Sudoeste 0 -- -- 42
2018-04-03 20:00:00 18.7 31 Sudoeste 54 Sudoeste 0 -- -- 37
2018-04-03 19:00:00 20 35 Sudoeste 52 Sur 0 -- -- 33
2018-04-03 18:00:00 19.9 39 Sur 57 Sudoeste 0 -- -- 34
2018-04-03 17:00:00 21.7 36 Sudoeste 52 Sur -- -- -- 34
2018-04-03 16:00:00 21.4 26 Sur 55 Sudoeste 0 -- -- 35
2018-04-03 15:00:00 20.5 28 Sudoeste 50 Sudoeste 0 -- -- 39
2018-04-03 14:00:00 19.6 31 Sudoeste 42 Sudoeste 0 -- -- 38
2018-04-03 13:00:00 18.8 29 Sudoeste 45 Sur 0 -- -- 42
2018-04-03 12:00:00 18.3 19 Sur 34 Sur 0 -- -- 45
2018-04-03 11:00:00 15.5 13 Sur 33 Sudoeste 0 -- -- 54
2018-04-03 10:00:00 14.9 18 Sur 33 Sur -- -- -- 57
2018-04-03 09:00:00 9.5 3 Este 15 Sur 0 -- -- 84
2018-04-03 08:00:00 8.6 12 Sur 23 Sur 0 -- -- 83
2018-04-03 07:00:00 9.2 6 Sur 20 Sudeste 0 -- -- 78
2018-04-03 06:00:00 9.7 14 Sudeste 32 Sudeste 0 -- -- 68
2018-04-03 05:00:00 10.4 25 Sudeste 37 Sudeste 0 -- -- 61
2018-04-03 04:00:00 10.6 22 Sudeste 39 Sudeste 0 -- -- 57
2018-04-03 03:00:00 11 25 Sudeste 37 Sudeste 0 -- -- 54
2018-04-03 02:00:00 11.7 23 Sudeste 41 Sudeste 0 -- -- 51
2018-04-03 01:00:00 12.4 26 Sudeste 42 Sudeste 0 -- -- 51
2018-04-03 00:00:00 13.6 23 Sudeste 39 Sudeste 0 -- -- 48
2018-04-02 23:00:00 13.2 24 Sudeste 38 Sudeste 0 -- -- 50
2018-04-02 22:00:00 13.8 25 Sudeste 37 Sudeste 0 -- -- 47
2018-04-02 21:00:00 14.9 25 Sudeste 46 Sudeste 0 -- -- 43
2018-04-02 20:00:00 16.3 29 Sudeste 50 Sudeste 0 -- -- 40
2018-04-02 19:00:00 17.8 37 Sudeste 58 Sudeste 0 -- -- 36
2018-04-02 18:00:00 18.3 42 Sudeste 60 Sudeste 0 -- -- 38
2018-04-02 17:00:00 18.7 42 Sudeste 59 Sudeste 0 -- -- 37
2018-04-02 16:00:00 18 33 Sudeste 57 Sudeste 0 -- -- 39
2018-04-02 15:00:00 18.9 40 Sudeste 54 Sudeste 0 -- -- 37
2018-04-02 14:00:00 18.2 36 Sudeste 54 Sudeste 0 -- -- 41
2018-04-02 13:00:00 17.4 39 Sudeste 52 Sudeste 0 -- -- 44
2018-04-02 12:00:00 13.6 28 Sudeste 42 Sudeste 0 -- -- 54
2018-04-02 11:00:00 10.7 18 Sudeste 39 Sur 0 -- -- 62
2018-04-02 10:00:00 9.9 13 Sudeste 26 Sudeste 0 -- -- 68
2018-04-02 09:00:00 7.2 0 Calma 9 Sudeste 0 -- -- 79
2018-04-02 08:00:00 6.8 5 Sudeste 13 Sur 0 -- -- 78
2018-04-02 07:00:00 7.2 7 Sudoeste 18 Sur 0 -- -- 75
2018-04-02 06:00:00 8.7 8 Sur 13 Sudeste 0 -- -- 69
2018-04-02 05:00:00 9.5 6 Este 21 Sur 0 -- -- 66
2018-04-02 04:00:00 10.3 6 Sur 19 Sudeste 0 -- -- 63
2018-04-02 03:00:00 10.6 9 Sudeste 16 Sudeste 0 -- -- 65
2018-04-02 02:00:00 11.2 10 Este 15 Este 0 -- -- 65
2018-04-02 01:00:00 12.3 12 Sudeste 29 Sudeste 0 -- -- 59
2018-04-02 00:00:00 12.6 17 Sudeste 26 Sudeste 0 -- -- 59
2018-04-01 23:00:00 12.7 15 Sudeste 23 Sudeste 0 -- -- 60
2018-04-01 22:00:00 13.2 11 Sudeste 21 Sudeste 0 -- -- 60
2018-04-01 21:00:00 13.9 10 Este 14 Este 0 -- -- 59
2018-04-01 20:00:00 15.9 7 Sudeste 25 Sudeste 0 -- -- 50
2018-04-01 19:00:00 17.1 19 Sudeste 31 Sudeste 0 -- -- 45
2018-04-01 18:00:00 18.5 19 Sudeste 32 Sudeste 0 -- -- 42
2018-04-01 17:00:00 18.8 20 Sudeste 29 Sudeste 0 -- -- 42
2018-04-01 16:00:00 18.1 19 Sudeste 30 Sudeste 0 -- -- 42
2018-04-01 15:00:00 17.8 17 Sudeste 30 Sudeste 0 -- -- 43
2018-04-01 14:00:00 16.1 13 Sudeste 22 Sudeste 0 -- -- 48
2018-04-01 13:00:00 14.1 10 Este 18 Sudeste 0 -- -- 52
2018-04-01 12:00:00 12.2 9 Sudeste 17 Sudeste 0 -- -- 57
2018-04-01 11:00:00 8.4 6 Este 12 Este 0 -- -- 69
2018-04-01 10:00:00 4.8 3 Nordeste 6 Este 0 -- -- 85
2018-04-01 09:00:00 0.8 0 Calma -- -- 0 -- -- 98
2018-04-01 08:00:00 -0.9 0 Calma 4 Este 0 -- -- 95
2018-04-01 07:00:00 -0.5 2 Este 5 Sudeste 0 -- -- 94
2018-04-01 06:00:00 -0.3 0 Calma 3 Sudoeste 0 -- -- 92
2018-04-01 05:00:00 0.2 4 Sur 6 Sur 0 -- -- 90
2018-04-01 04:00:00 1 3 Sudoeste 8 Sur 0 -- -- 88
2018-04-01 03:00:00 1.7 3 Sur 12 Sudoeste 0 -- -- 85
2018-04-01 02:00:00 2.1 5 Sur 8 Sur 0 -- -- 84
2018-04-01 01:00:00 3.4 2 Sur 11 Sur 0 -- -- 79
2018-04-01 00:00:00 5.2 4 Sur 14 Norte 0 -- -- 72
2018-03-31 23:00:00 7.2 12 Norte 17 Norte 0 -- -- 64
2018-03-31 22:00:00 7.5 7 Norte 14 Norte 0 -- -- 60
2018-03-31 21:00:00 9.9 11 Noroeste 27 Norte 0 -- -- 47
2018-03-31 20:00:00 11.8 17 Norte 37 Noroeste 0 -- -- 49
2018-03-31 19:00:00 13.2 24 Norte 43 Norte 0 -- -- 40
2018-03-31 18:00:00 13.8 23 Norte 55 Noroeste 0 -- -- 41
2018-03-31 17:00:00 16.4 31 Noroeste 54 Noroeste 0 -- -- 30
2018-03-31 16:00:00 15.6 33 Noroeste 56 Noroeste 0 -- -- 33
2018-03-31 15:00:00 14.8 37 Noroeste 62 Noroeste 0 -- -- 33
2018-03-31 14:00:00 13.6 38 Noroeste 61 Noroeste 0 -- -- 38
2018-03-31 13:00:00 12.8 40 Noroeste 63 Oeste 0 -- -- 43
2018-03-31 12:00:00 11.6 43 Noroeste 70 Noroeste 0 -- -- 46
2018-03-31 11:00:00 10.5 47 Noroeste 70 Noroeste 0 -- -- 48
2018-03-31 10:00:00 9.7 42 Noroeste 70 Oeste 0 -- -- 51
2018-03-31 09:00:00 8.2 42 Noroeste 64 Oeste 0 -- -- 54
2018-03-31 08:00:00 7.5 38 Noroeste 62 Oeste 0 -- -- 59
2018-03-31 07:00:00 5.8 5 Oeste 14 Sudeste 0 -- -- 72
2018-03-31 06:00:00 6 4 Sudeste 8 Este 0 -- -- 76
2018-03-31 05:00:00 6.1 4 Noroeste 8 Noroeste 0 -- -- 73
2018-03-31 04:00:00 5.9 2 Sudeste 6 Sudeste 0 -- -- 75
2018-03-31 03:00:00 7.1 5 Oeste 23 Oeste 0 -- -- 61
2018-03-31 02:00:00 7.5 15 Sudoeste 22 Sudoeste 0 -- -- 72
2018-03-31 01:00:00 8.4 18 Sudoeste 32 Sudoeste 0 -- -- 69
2018-03-31 00:00:00 8.9 20 Sudoeste 31 Sudoeste 0 -- -- 62
2018-03-30 23:00:00 10.2 15 Sudoeste 36 Sudoeste 0 -- -- 48
2018-03-30 22:00:00 10.8 21 Sur 30 Sur 0 -- -- 44
2018-03-30 21:00:00 11.2 9 Oeste 39 Oeste 0 -- -- 37
2018-03-30 20:00:00 12.2 23 Oeste 55 Sudoeste 0 -- -- 32
2018-03-30 19:00:00 13.8 36 Oeste 51 Sudoeste 0 -- -- 27
2018-03-30 18:00:00 15.1 24 Oeste 44 Sudoeste 0 -- -- 30
2018-03-30 17:00:00 14.6 5 Norte 20 Nordeste 0 -- -- 34
2018-03-30 16:00:00 14.6 8 Nordeste 18 Norte 0 -- -- 34
2018-03-30 15:00:00 14 5 Noroeste 15 Norte 0 -- -- 35
2018-03-30 14:00:00 13.5 8 Norte 17 Nordeste 0 -- -- 39
2018-03-30 13:00:00 12.2 8 Nordeste 23 Este 0 -- -- 45
2018-03-30 12:00:00 11.3 6 Nordeste 15 Nordeste 0 -- -- 46
2018-03-30 11:00:00 10.3 7 Nordeste 18 Nordeste 0 -- -- 53
2018-03-30 10:00:00 9.9 4 Este 19 Nordeste 0 -- -- 52
2018-03-30 09:00:00 6.3 3 Nordeste 18 Este 0 -- -- 79
2018-03-30 08:00:00 4.9 2 Oeste 16 Oeste 0 -- -- 79
2018-03-30 07:00:00 5.7 5 Oeste 37 Noroeste 0 -- -- 83
2018-03-30 06:00:00 9.1 23 Oeste 42 Oeste 0 -- -- 64
2018-03-30 05:00:00 9.1 9 Sur 22 Sudeste 0 -- -- 60
2018-03-30 04:00:00 9.1 12 Nordeste 24 Este 0 -- -- 61
2018-03-30 03:00:00 7.9 11 Sur 21 Sudeste 0 -- -- 69
2018-03-30 02:00:00 7.9 8 Sudeste 17 Sur 0 -- -- 64
2018-03-30 01:00:00 9.3 14 Sudoeste 19 Sudoeste 0 -- -- 60
2018-03-30 00:00:00 10.6 15 Sudoeste 20 Sudoeste 0 -- -- 53
2018-03-29 23:00:00 9.3 13 Sudoeste 16 Sudoeste 0 -- -- 63
2018-03-29 22:00:00 9.2 10 Sudoeste 14 Sur 0 -- -- 73
2018-03-29 21:00:00 11.9 3 Este 9 Sudeste 0 -- -- 62
2018-03-29 20:00:00 14.6 4 Nordeste 11 Norte 0 -- -- 49
2018-03-29 19:00:00 16.4 7 Norte 15 Norte 0 -- -- 39
2018-03-29 18:00:00 17 9 Norte 19 Norte 0 -- -- 41
2018-03-29 17:00:00 17.2 8 Norte 17 Nordeste 0 -- -- 42
2018-03-29 16:00:00 16.7 7 Norte 18 Nordeste 0 -- -- 46
2018-03-29 15:00:00 16.1 8 Nordeste 15 Nordeste 0 -- -- 48
2018-03-29 14:00:00 14.6 9 Este 18 Este 0 -- -- 57
2018-03-29 13:00:00 14.2 8 Norte 17 Norte 0 -- -- 55
2018-03-29 12:00:00 13.1 5 Noroeste 12 Nordeste 0 -- -- 64
2018-03-29 11:00:00 11.7 4 Noroeste 14 Noroeste 0 -- -- 70
2018-03-29 10:00:00 10.2 8 Norte 15 Norte 0 -- -- 78
2018-03-29 09:00:00 8 5 Noroeste 10 Noroeste 0 -- -- 91
2018-03-29 08:00:00 7.8 7 Noroeste 14 Norte 0 -- -- 91
2018-03-29 07:00:00 7.9 7 Noroeste 12 Noroeste 0 -- -- 92
2018-03-29 06:00:00 7.9 6 Norte 12 Noroeste 0 -- -- 94
2018-03-29 05:00:00 7.7 4 Norte 8 Noroeste 0 -- -- 91
2018-03-29 04:00:00 9.4 5 Norte 14 Noroeste 0 -- -- 87
2018-03-29 03:00:00 9.7 7 Noroeste 23 Noroeste 0 -- -- 84
2018-03-29 02:00:00 10.1 8 Noroeste 24 Noroeste 0 -- -- 91
2018-03-29 01:00:00 10.3 15 Noroeste 31 Norte 0 -- -- 90
2018-03-29 00:00:00 11.6 13 Noroeste 21 Norte 0 -- -- 79
2018-03-28 23:00:00 12.1 15 Noroeste 27 Norte 0 -- -- 73
2018-03-28 22:00:00 12.7 13 Noroeste 22 Noroeste 0 -- -- 71
2018-03-28 21:00:00 14.2 10 Norte 35 Noroeste 0 -- -- 66
2018-03-28 20:00:00 18.7 4 Noroeste 9 Este 0 -- -- 51
2018-03-28 19:00:00 19.8 6 Este 12 Este 0 -- -- 46
2018-03-28 18:00:00 20.3 7 Este 17 Este 0 -- -- 40
2018-03-28 17:00:00 20.4 5 Norte 16 Este 0 -- -- 39
2018-03-28 16:00:00 19.8 8 Norte 19 Norte 0 -- -- 37
2018-03-28 15:00:00 19.8 9 Noroeste 18 Norte 0 -- -- 41
2018-03-28 14:00:00 17.9 8 Norte 16 Nordeste 0 -- -- 52
2018-03-28 13:00:00 16.7 10 Norte 18 Norte 0 -- -- 56
2018-03-28 12:00:00 14.4 5 Norte 12 Norte 0 -- -- 70
2018-03-28 11:00:00 11.9 6 Nordeste 12 Norte 0 -- -- 82
2018-03-28 10:00:00 8.5 2 Noroeste 4 Noroeste 0 -- -- 99
2018-03-28 09:00:00 4.4 3 Sudeste 8 Norte 0 -- -- 100
2018-03-28 08:00:00 2.4 0 Calma 9 Sudeste 0 -- -- 98
2018-03-28 07:00:00 2.6 0 Calma 8 Oeste 0 -- -- 97
2018-03-28 06:00:00 3.3 0 Calma 8 Sur 0 -- -- 97
2018-03-28 05:00:00 4.1 2 Noroeste 6 Norte 0 -- -- 97
2018-03-28 04:00:00 4.8 2 Oeste 8 Sudoeste 0 -- -- 96
2018-03-28 03:00:00 5.4 5 Sur 9 Sur 0 -- -- 93
2018-03-28 02:00:00 6.5 2 Noroeste 8 Sur 0 -- -- 94
2018-03-28 01:00:00 7.2 6 Sur 8 Sur 0 -- -- 91
2018-03-28 00:00:00 8.3 3 Sudoeste 9 Sur 0 -- -- 89
2018-03-27 23:00:00 9.5 3 Oeste 10 Sudoeste 0 -- -- 84
2018-03-27 22:00:00 11.3 8 Sudoeste 11 Sudoeste 0 -- -- 78
2018-03-27 21:00:00 13.7 3 Nordeste 12 Nordeste 0 -- -- 69
2018-03-27 20:00:00 16.3 7 Nordeste 16 Nordeste 0 -- -- 65
2018-03-27 19:00:00 17.5 9 Nordeste 20 Norte 0 -- -- 61
2018-03-27 18:00:00 17.9 13 Nordeste 30 Noroeste 0 -- -- 59
2018-03-27 17:00:00 18.6 17 Norte 39 Norte 0 -- -- 55
2018-03-27 16:00:00 19.1 20 Norte 39 Noroeste 0 -- -- 52
2018-03-27 15:00:00 18.6 22 Norte 40 Noroeste 0 -- -- 52
2018-03-27 14:00:00 18.2 22 Norte 37 Noroeste 0 -- -- 54
2018-03-27 13:00:00 16.6 27 Noroeste 41 Noroeste 0 -- -- 58
2018-03-27 12:00:00 15.3 27 Noroeste 41 Noroeste 0 -- -- 61
2018-03-27 11:00:00 13.8 19 Noroeste 34 Noroeste 0 -- -- 67
2018-03-27 10:00:00 12 15 Noroeste 26 Noroeste 0 -- -- 73
2018-03-27 09:00:00 7 6 Noroeste 9 Noroeste 0 -- -- 95
2018-03-27 08:00:00 5.7 4 Sudoeste 8 Sudoeste 0 -- -- 90
2018-03-27 07:00:00 7.7 4 Sur 6 Sur 0 -- -- 86
2018-03-27 06:00:00 8.1 4 Norte 13 Norte 0 -- -- 84
2018-03-27 05:00:00 7.7 4 Noroeste 11 Oeste 0 -- -- 86
2018-03-27 04:00:00 7.1 3 Sudoeste 8 Oeste 0 -- -- 90
2018-03-27 03:00:00 7.1 0 Calma 4 Sudoeste 0 -- -- 86
2018-03-27 02:00:00 7.1 3 Sudoeste 8 Sudoeste 0 -- -- 85
2018-03-27 01:00:00 7.5 3 Noroeste 13 Noroeste 0 -- -- 79
2018-03-27 00:00:00 6.2 3 Sudoeste 7 Sudoeste 0 -- -- 83
2018-03-26 23:00:00 7.7 5 Oeste 18 Noroeste 0 -- -- 75
2018-03-26 22:00:00 8.2 10 Noroeste 16 Norte 0 -- -- 74
2018-03-26 21:00:00 8.5 12 Noroeste 27 Norte 0 -- -- 72
2018-03-26 20:00:00 9.5 18 Norte 41 Norte 0 -- -- 67
2018-03-26 19:00:00 11.1 30 Norte 45 Norte 0 -- -- 59
2018-03-26 18:00:00 11.7 24 Norte 41 Norte 0 -- -- 58
2018-03-26 17:00:00 12.5 22 Norte 42 Noroeste 0 -- -- 53
2018-03-26 16:00:00 12.2 26 Noroeste 42 Noroeste 0 -- -- 55
2018-03-26 15:00:00 12.1 23 Norte 40 Noroeste 0 -- -- 54
2018-03-26 14:00:00 11.6 27 Noroeste 46 Noroeste 0 -- -- 54
2018-03-26 13:00:00 10 26 Noroeste 45 Noroeste 0 -- -- 64
2018-03-26 12:00:00 10.5 31 Noroeste 55 Noroeste 0 -- -- 62
2018-03-26 11:00:00 10.2 33 Noroeste 54 Noroeste 0 -- -- 67
2018-03-26 10:00:00 8.2 32 Noroeste 51 Noroeste 0 -- -- 76
2018-03-26 09:00:00 7.8 27 Noroeste 43 Noroeste 0 -- -- 79
2018-03-26 08:00:00 7.1 20 Noroeste 48 Noroeste 0 -- -- 81
2018-03-26 07:00:00 7.2 30 Noroeste 47 Noroeste 0 -- -- 81
2018-03-26 06:00:00 7.2 27 Noroeste 42 Noroeste 0 -- -- 79
2018-03-26 05:00:00 6.6 17 Noroeste 28 Noroeste 0 -- -- 81
2018-03-26 04:00:00 7 17 Noroeste 31 Noroeste 0 -- -- 78
2018-03-26 03:00:00 6.6 13 Noroeste 27 Noroeste 0 -- -- 80
2018-03-26 02:00:00 6.8 16 Noroeste 30 Noroeste 0 -- -- 80
2018-03-26 01:00:00 6.6 14 Noroeste 26 Noroeste 0 -- -- 82
2018-03-26 00:00:00 6.2 12 Noroeste 19 Noroeste 0 -- -- 86
2018-03-25 23:00:00 6.2 4 Noroeste 17 Noroeste 0 -- -- 81
2018-03-25 22:00:00 7.5 10 Noroeste 20 Noroeste 0 -- -- 79
2018-03-25 21:00:00 8.1 9 Noroeste 36 Noroeste 0 -- -- 78
2018-03-25 20:00:00 9.7 13 Norte 33 Norte 0 -- -- 67
2018-03-25 19:00:00 11.1 25 Noroeste 41 Noroeste 0 -- -- 60
2018-03-25 18:00:00 12.1 29 Noroeste 40 Noroeste 0 -- -- 58
2018-03-25 17:00:00 10.2 18 Noroeste 48 Noroeste 0.2 -- -- 75
2018-03-25 16:00:00 14.5 24 Noroeste 43 Norte 0 -- -- 50
2018-03-25 15:00:00 13.6 22 Noroeste 40 Noroeste 0 -- -- 48
2018-03-25 14:00:00 13.5 23 Noroeste 44 Noroeste 0 -- -- 53
2018-03-25 13:00:00 11.6 21 Noroeste 40 Noroeste 0 -- -- 56
2018-03-25 12:00:00 10.1 19 Noroeste 29 Noroeste 0 -- -- 65
2018-03-25 11:00:00 8.8 9 Noroeste 17 Noroeste 0 -- -- 72
2018-03-25 10:00:00 6.8 2 Noroeste 6 Sur 0 -- -- 80
2018-03-25 09:00:00 5.4 3 Sudoeste 6 Oeste 0 -- -- 89
2018-03-25 08:00:00 4.9 3 Sur 12 Sur 0 -- -- 85
2018-03-25 07:00:00 5.3 3 Norte 12 Noroeste 0 -- -- 80
2018-03-25 06:00:00 5.2 6 Este 12 Norte 0 -- -- 82
2018-03-25 05:00:00 5.9 6 Norte 23 Noroeste 0 -- -- 80
2018-03-25 03:00:00 6.6 17 Noroeste 25 Noroeste 0 -- -- 83
2018-03-25 01:00:00 6 5 Oeste 19 Noroeste 0 -- -- 84
2018-03-25 00:00:00 4.3 3 Noroeste 8 Noroeste 0 -- -- 82
2018-03-24 23:00:00 6.3 6 Norte 24 Noroeste 0 -- -- 75
2018-03-24 22:00:00 7.8 16 Noroeste 32 Noroeste 0 -- -- 69
2018-03-24 21:00:00 8.6 19 Noroeste 33 Noroeste 0 -- -- 64
2018-03-24 20:00:00 9 14 Noroeste 43 Noroeste 0 -- -- 61
2018-03-24 19:00:00 11.1 20 Noroeste 46 Noroeste 0 -- -- 58
2018-03-24 18:00:00 13 20 Noroeste 46 Noroeste 0 -- -- 53
2018-03-24 17:00:00 13.3 23 Noroeste 51 Noroeste 0 -- -- 52
2018-03-24 16:00:00 12.9 27 Noroeste 45 Noroeste 0 -- -- 51
2018-03-24 15:00:00 13.9 28 Noroeste 47 Noroeste 0 -- -- 45
2018-03-24 14:00:00 14 24 Noroeste 41 Noroeste 0 -- -- 51
2018-03-24 13:00:00 12.1 27 Noroeste 44 Norte 0 -- -- 55
2018-03-24 12:00:00 12.2 15 Noroeste 29 Noroeste 0 -- -- 60
2018-03-24 11:00:00 9.9 8 Norte 16 Norte 0 -- -- 65
2018-03-24 10:00:00 7.9 10 Noroeste 18 Noroeste 0 -- -- 75
2018-03-24 09:00:00 5.2 7 Norte 17 Noroeste 0 -- -- 89
2018-03-24 08:00:00 1.8 7 Noroeste 12 Noroeste 0 -- -- 96
2018-03-24 07:00:00 2.4 4 Noroeste 10 Oeste 0 -- -- 95
2018-03-24 06:00:00 3.3 4 Noroeste 10 Norte 0 -- -- 94
2018-03-24 05:00:00 4 5 Norte 15 Norte 0 -- -- 95
2018-03-24 04:00:00 4.5 7 Norte 24 Noroeste 0 -- -- 94
2018-03-24 03:00:00 5 17 Noroeste 57 Noroeste 1.6 -- -- 93
2018-03-24 02:00:00 6.6 32 Noroeste 63 Noroeste 3 -- -- 94
2018-03-24 01:00:00 9.4 3 Sudeste 8 Noroeste 0.4 -- -- 92
2018-03-24 00:00:00 10.1 4 Noroeste 36 Noroeste 0.8 -- -- 89
2018-03-23 23:00:00 12.1 13 Oeste 30 Sudoeste 0.2 -- -- 75
2018-03-23 22:00:00 12.4 15 Sudoeste 31 Sur 0 -- -- 72
2018-03-23 21:00:00 11.4 13 Sur 19 Sur 0 -- -- 78
2018-03-23 20:00:00 11.7 6 Este 11 Este 0 -- -- 77
2018-03-23 19:00:00 13.3 6 Este 9 Este 0 -- -- 66
2018-03-23 18:00:00 14.5 5 Este 9 Este 0 -- -- 63
2018-03-23 17:00:00 15.2 4 Nordeste 14 Norte 0 -- -- 51
2018-03-23 16:00:00 14.4 9 Noroeste 26 Norte 0 -- -- 54
2018-03-23 15:00:00 14.3 18 Norte 29 Norte 0 -- -- 53
2018-03-23 14:00:00 14.8 13 Noroeste 20 Noroeste 0 -- -- 55
2018-03-23 13:00:00 14.1 12 Norte 20 Norte 0 -- -- 56
2018-03-23 12:00:00 12.8 14 Norte 22 Noroeste 0 -- -- 56
2018-03-23 11:00:00 11.3 10 Noroeste 28 Noroeste 0 -- -- 55
2018-03-23 10:00:00 9.6 10 Noroeste 15 Noroeste 0 -- -- 64
2018-03-23 09:00:00 6 6 Noroeste 10 Noroeste 0 -- -- 81
2018-03-23 08:00:00 4 5 Sudoeste 10 Sudoeste 0 -- -- 88
2018-03-23 07:00:00 2.6 6 Oeste 12 Noroeste 0 -- -- 91
2018-03-23 06:00:00 1 4 Oeste 6 Sur 0 -- -- 90
2018-03-23 05:00:00 2 5 Oeste 16 Noroeste 0 -- -- 82
2018-03-23 04:00:00 2.3 8 Noroeste 21 Norte 0 -- -- 82
2018-03-23 03:00:00 2.8 14 Norte 24 Noroeste 0 -- -- 82
2018-03-23 02:00:00 1.8 9 Norte 17 Noroeste 0 -- -- 85
2018-03-23 01:00:00 0.4 4 Norte 8 Noroeste 0 -- -- 89
2018-03-23 00:00:00 0.8 5 Noroeste 9 Noroeste 0 -- -- 83